CES875 ZSPD-PHNL
Flight info
| Callsign | CES875 |
|---|---|
| Flight time | N/A |
| Altitude | 37000 |
| Route | LAM93D LAMEN A593 SADLI Y590 BEDAR Y591 FUE Y23 KASTE Y81 TASOT Y57 LIGNI Y816 IPROS Y830 LAPIL OTR13 SEALS DCT 35N150E 35N155E 35N160E/N0459F390 34N165E 32N170E 30N175E 29N180E 28N175W 25N170W 22N165W DCT BRIUN DCT KATHS OPACA4 |
| Aircraft | A343/H-SDE2E3FGHIJ4J5M1RWXY/LB1D1 |
Departure
| Time | N/A |
|---|---|
| Airport | Shanghai Pudong International Airport (ZSPD) |
Arrival
| Time | 2026-05-07 13:58 |
|---|---|
| Airport | Daniel K. Inouye International Airport (PHNL) |
| Time | Latitude | Longitude | Altitude | Speed | Heading |
|---|---|---|---|---|---|
| 2026-05-07 12:14 | 35.02457 | 158.01929 | 37228 ft | 533 kts | 88° |
| 2026-05-07 12:15 | 35.02367 | 158.20010 | 37234 ft | 533 kts | 88° |
| 2026-05-07 12:15 | 35.02107 | 158.56095 | 37228 ft | 533 kts | 88° |
| 2026-05-07 12:16 | 35.01740 | 158.92077 | 37234 ft | 533 kts | 89° |
| 2026-05-07 12:16 | 35.01265 | 159.28229 | 37242 ft | 531 kts | 89° |
| 2026-05-07 12:17 | 35.00686 | 159.64185 | 37245 ft | 528 kts | 89° |
| 2026-05-07 12:17 | 34.99810 | 160.00151 | 37260 ft | 532 kts | 98° |
| 2026-05-07 12:18 | 34.93656 | 160.35465 | 37261 ft | 531 kts | 101° |
| 2026-05-07 12:18 | 34.87266 | 160.70551 | 37276 ft | 529 kts | 101° |
| 2026-05-07 12:19 | 34.80797 | 161.05469 | 37275 ft | 529 kts | 101° |
| 2026-05-07 12:19 | 34.74210 | 161.40430 | 37278 ft | 531 kts | 101° |
| 2026-05-07 12:20 | 34.67548 | 161.75207 | 37277 ft | 532 kts | 102° |
| 2026-05-07 12:20 | 34.60732 | 162.10211 | 37288 ft | 534 kts | 102° |
| 2026-05-07 12:21 | 34.53796 | 162.45253 | 37292 ft | 533 kts | 102° |
| 2026-05-07 12:21 | 34.46758 | 162.80252 | 37291 ft | 537 kts | 102° |
| 2026-05-07 12:22 | 34.39589 | 163.15344 | 37289 ft | 537 kts | 102° |
| 2026-05-07 12:22 | 34.32305 | 163.50447 | 37308 ft | 539 kts | 103° |
| 2026-05-07 12:22 | 34.28610 | 163.68044 | 37919 ft | 539 kts | 103° |
| 2026-05-07 12:23 | 34.24901 | 163.85577 | 38502 ft | 538 kts | 103° |
| 2026-05-07 12:23 | 34.21180 | 164.03033 | 39042 ft | 536 kts | 103° |
| 2026-05-07 12:23 | 34.17424 | 164.20527 | 39302 ft | 539 kts | 103° |
| 2026-05-07 12:24 | 34.09868 | 164.55318 | 39299 ft | 536 kts | 103° |
| 2026-05-07 12:24 | 34.02251 | 164.89884 | 39307 ft | 537 kts | 104° |
| 2026-05-07 12:25 | 33.91323 | 165.23335 | 39315 ft | 538 kts | 115° |
| 2026-05-07 12:25 | 33.78987 | 165.56121 | 39310 ft | 537 kts | 115° |
| 2026-05-07 12:26 | 33.66597 | 165.88774 | 39318 ft | 538 kts | 115° |
| 2026-05-07 12:26 | 33.54104 | 166.21378 | 39325 ft | 537 kts | 116° |
| 2026-05-07 12:27 | 33.41559 | 166.53802 | 39329 ft | 533 kts | 116° |
| 2026-05-07 12:27 | 33.29000 | 166.85951 | 39331 ft | 533 kts | 116° |
| 2026-05-07 12:28 | 33.16367 | 167.17988 | 39331 ft | 533 kts | 117° |
| 2026-05-07 12:28 | 33.03654 | 167.49928 | 39330 ft | 531 kts | 117° |
| 2026-05-07 12:29 | 32.90946 | 167.81562 | 39338 ft | 529 kts | 117° |
| 2026-05-07 12:29 | 32.78197 | 168.13011 | 39335 ft | 523 kts | 117° |
| 2026-05-07 12:30 | 32.65469 | 168.44126 | 39336 ft | 525 kts | 117° |
| 2026-05-07 12:30 | 32.52758 | 168.74928 | 39333 ft | 521 kts | 117° |
| 2026-05-07 12:31 | 32.39947 | 169.05702 | 39324 ft | 520 kts | 117° |
| 2026-05-07 12:31 | 32.27131 | 169.36226 | 39336 ft | 518 kts | 117° |
| 2026-05-07 12:32 | 32.14240 | 169.66665 | 39338 ft | 515 kts | 117° |
| 2026-05-07 12:32 | 32.01362 | 169.96821 | 39337 ft | 516 kts | 118° |
| 2026-05-07 12:33 | 31.83891 | 170.42979 | 39335 ft | 514 kts | 114° |
| 2026-05-07 12:33 | 31.72243 | 170.73716 | 39328 ft | 514 kts | 114° |
| 2026-05-07 12:34 | 31.60556 | 171.04294 | 39330 ft | 515 kts | 114° |
| 2026-05-07 12:34 | 31.48769 | 171.34867 | 39329 ft | 513 kts | 114° |
| 2026-05-07 12:35 | 31.37007 | 171.65111 | 39331 ft | 510 kts | 114° |
| 2026-05-07 12:35 | 31.25201 | 171.95212 | 39330 ft | 513 kts | 114° |
| 2026-05-07 12:36 | 31.13260 | 172.25399 | 39328 ft | 510 kts | 114° |
| 2026-05-07 12:36 | 31.01302 | 172.55381 | 39324 ft | 509 kts | 114° |
| 2026-05-07 12:37 | 30.89292 | 172.85244 | 39330 ft | 509 kts | 114° |
| 2026-05-07 12:37 | 30.77189 | 173.15092 | 39323 ft | 508 kts | 115° |
| 2026-05-07 12:38 | 30.65101 | 173.44663 | 39325 ft | 507 kts | 115° |
| 2026-05-07 12:38 | 30.52917 | 173.74230 | 39304 ft | 508 kts | 115° |
| 2026-05-07 12:39 | 30.40757 | 174.03504 | 39324 ft | 503 kts | 115° |
| 2026-05-07 12:39 | 30.28551 | 174.32662 | 39323 ft | 503 kts | 115° |
| 2026-05-07 12:40 | 30.16344 | 174.61595 | 39324 ft | 499 kts | 115° |
| 2026-05-07 12:40 | 30.04122 | 174.90347 | 39319 ft | 503 kts | 115° |
| 2026-05-07 12:41 | 29.99055 | 175.05266 | 39330 ft | 496 kts | 102° |
| 2026-05-07 12:41 | 29.96217 | 175.20822 | 39314 ft | 495 kts | 100° |
| 2026-05-07 12:41 | 29.90584 | 175.51883 | 39316 ft | 495 kts | 101° |
| 2026-05-07 12:42 | 29.84850 | 175.82891 | 39312 ft | 495 kts | 101° |
| 2026-05-07 12:42 | 29.79053 | 176.13817 | 39308 ft | 494 kts | 101° |
| 2026-05-07 12:43 | 29.73190 | 176.44674 | 39307 ft | 492 kts | 102° |
| 2026-05-07 12:43 | 29.67274 | 176.75399 | 39303 ft | 492 kts | 102° |
| 2026-05-07 12:44 | 29.61284 | 177.06104 | 39305 ft | 495 kts | 102° |
| 2026-05-07 12:44 | 29.55180 | 177.36994 | 39295 ft | 496 kts | 103° |
| 2026-05-07 12:45 | 29.48978 | 177.67978 | 39292 ft | 497 kts | 103° |
| 2026-05-07 12:45 | 29.42752 | 177.98684 | 39293 ft | 498 kts | 103° |
| 2026-05-07 12:46 | 29.36409 | 178.29584 | 39287 ft | 498 kts | 103° |
| 2026-05-07 12:46 | 29.29974 | 178.60544 | 39282 ft | 500 kts | 104° |
| 2026-05-07 12:47 | 29.24518 | 178.86497 | 39289 ft | 500 kts | 104° |
| 2026-05-07 12:47 | 29.17980 | 179.17253 | 39279 ft | 500 kts | 104° |
| 2026-05-07 12:48 | 29.11319 | 179.48215 | 39271 ft | 502 kts | 105° |
| 2026-05-07 12:48 | 29.04584 | 179.79154 | 39268 ft | 502 kts | 105° |
| 2026-05-07 12:49 | 28.98055 | -179.89841 | 39263 ft | 504 kts | 102° |
| 2026-05-07 12:49 | 28.92470 | -179.58496 | 39267 ft | 501 kts | 103° |
| 2026-05-07 12:50 | 28.86722 | -179.27345 | 39262 ft | 501 kts | 103° |
| 2026-05-07 12:50 | 28.80905 | -178.96225 | 39262 ft | 502 kts | 104° |
| 2026-05-07 12:51 | 28.75012 | -178.65116 | 39260 ft | 501 kts | 104° |
| 2026-05-07 12:51 | 28.69054 | -178.34079 | 39260 ft | 502 kts | 104° |
| 2026-05-07 12:52 | 28.63020 | -178.03047 | 39255 ft | 500 kts | 104° |
| 2026-05-07 12:52 | 28.56938 | -177.72167 | 39262 ft | 500 kts | 104° |
| 2026-05-07 12:53 | 28.50786 | -177.41316 | 39275 ft | 500 kts | 104° |
| 2026-05-07 12:53 | 28.44545 | -177.10412 | 39255 ft | 502 kts | 104° |
| 2026-05-07 12:54 | 28.38228 | -176.79510 | 39249 ft | 503 kts | 104° |
| 2026-05-07 12:54 | 28.31870 | -176.48786 | 39244 ft | 503 kts | 105° |
| 2026-05-07 12:55 | 28.25396 | -176.17872 | 39248 ft | 503 kts | 105° |
| 2026-05-07 12:55 | 28.18847 | -175.86968 | 39244 ft | 504 kts | 105° |
| 2026-05-07 12:56 | 28.12226 | -175.56094 | 39238 ft | 504 kts | 105° |
| 2026-05-07 12:56 | 28.05529 | -175.25226 | 39238 ft | 505 kts | 105° |
| 2026-05-07 12:57 | 27.97225 | -174.95106 | 39235 ft | 498 kts | 123° |
| 2026-05-07 12:57 | 27.82265 | -174.68845 | 39238 ft | 497 kts | 126° |
| 2026-05-07 12:58 | 27.67254 | -174.42630 | 39233 ft | 497 kts | 126° |
| 2026-05-07 12:58 | 27.52241 | -174.16576 | 39231 ft | 494 kts | 126° |
| 2026-05-07 12:59 | 27.37306 | -173.90811 | 39228 ft | 494 kts | 126° |
| 2026-05-07 12:59 | 27.22250 | -173.64987 | 39225 ft | 492 kts | 126° |
| 2026-05-07 13:00 | 27.07217 | -173.39353 | 39225 ft | 491 kts | 126° |
| 2026-05-07 13:00 | 26.92181 | -173.13860 | 39223 ft | 487 kts | 126° |
| 2026-05-07 13:01 | 26.77173 | -172.88563 | 39217 ft | 487 kts | 126° |
| 2026-05-07 13:01 | 26.62124 | -172.63336 | 39208 ft | 486 kts | 127° |
| 2026-05-07 13:02 | 26.47069 | -172.38240 | 39206 ft | 486 kts | 127° |
| 2026-05-07 13:02 | 26.31977 | -172.13222 | 39204 ft | 486 kts | 127° |
| 2026-05-07 13:03 | 26.16827 | -171.88242 | 39202 ft | 486 kts | 127° |
| 2026-05-07 13:03 | 26.01643 | -171.63344 | 39194 ft | 486 kts | 127° |
| 2026-05-07 13:04 | 25.86368 | -171.38431 | 39189 ft | 488 kts | 127° |
| 2026-05-07 13:04 | 25.71123 | -171.13699 | 39188 ft | 488 kts | 127° |
| 2026-05-07 13:05 | 25.55674 | -170.88771 | 39194 ft | 492 kts | 127° |
| 2026-05-07 13:05 | 25.40181 | -170.63902 | 39175 ft | 490 kts | 127° |
| 2026-05-07 13:06 | 25.24614 | -170.39048 | 39175 ft | 494 kts | 127° |
| 2026-05-07 13:06 | 25.08924 | -170.14126 | 39178 ft | 494 kts | 127° |
| 2026-05-07 13:07 | 24.93593 | -169.88973 | 39171 ft | 495 kts | 124° |
| 2026-05-07 13:07 | 24.78977 | -169.63279 | 39168 ft | 495 kts | 124° |
| 2026-05-07 13:08 | 24.64246 | -169.37716 | 39158 ft | 494 kts | 124° |
| 2026-05-07 13:08 | 24.49477 | -169.12219 | 39160 ft | 499 kts | 125° |
| 2026-05-07 13:09 | 24.34553 | -168.86588 | 39154 ft | 497 kts | 125° |
| 2026-05-07 13:09 | 24.19574 | -168.61000 | 39153 ft | 501 kts | 125° |
| 2026-05-07 13:10 | 24.04509 | -168.35394 | 39151 ft | 500 kts | 125° |
| 2026-05-07 13:10 | 23.89393 | -168.09838 | 39147 ft | 503 kts | 125° |
| 2026-05-07 13:11 | 23.74095 | -167.84103 | 39141 ft | 504 kts | 125° |
| 2026-05-07 13:11 | 23.58802 | -167.58509 | 39140 ft | 504 kts | 125° |
| 2026-05-07 13:12 | 23.43378 | -167.32829 | 39134 ft | 507 kts | 126° |
| 2026-05-07 13:12 | 23.28006 | -167.07361 | 39129 ft | 506 kts | 126° |
| 2026-05-07 13:13 | 23.12439 | -166.81703 | 39126 ft | 511 kts | 126° |
| 2026-05-07 13:13 | 22.96750 | -166.55968 | 39123 ft | 510 kts | 126° |
| 2026-05-07 13:14 | 22.81083 | -166.30398 | 39121 ft | 510 kts | 126° |
| 2026-05-07 13:14 | 22.65100 | -166.04441 | 39115 ft | 520 kts | 126° |
| 2026-05-07 13:15 | 22.49002 | -165.78425 | 39118 ft | 520 kts | 126° |
| 2026-05-07 13:15 | 22.32814 | -165.52393 | 39108 ft | 523 kts | 126° |
| 2026-05-07 13:16 | 22.16553 | -165.26370 | 39110 ft | 521 kts | 126° |
| 2026-05-07 13:16 | 22.00157 | -165.00381 | 39091 ft | 526 kts | 131° |
| 2026-05-07 13:17 | 21.81518 | -164.76187 | 39109 ft | 524 kts | 132° |
| 2026-05-07 13:17 | 21.62822 | -164.52202 | 39100 ft | 534 kts | 133° |
| 2026-05-07 13:18 | 21.43734 | -164.27813 | 39099 ft | 530 kts | 133° |
| 2026-05-07 13:18 | 21.24763 | -164.03688 | 39099 ft | 529 kts | 133° |
| 2026-05-07 13:19 | 21.16257 | -163.90926 | 39100 ft | 528 kts | 110° |
| 2026-05-07 13:19 | 21.14625 | -163.75445 | 39097 ft | 526 kts | 89° |
| 2026-05-07 13:19 | 21.14017 | -163.44133 | 39097 ft | 525 kts | 90° |
| 2026-05-07 13:20 | 21.13215 | -163.12894 | 39098 ft | 523 kts | 90° |
| 2026-05-07 13:20 | 21.12363 | -162.81801 | 39099 ft | 520 kts | 91° |
| 2026-05-07 13:21 | 21.11459 | -162.50877 | 39088 ft | 517 kts | 91° |
| 2026-05-07 13:21 | 21.10505 | -162.20102 | 39087 ft | 516 kts | 91° |
| 2026-05-07 13:22 | 21.09498 | -161.89446 | 39090 ft | 515 kts | 92° |
| 2026-05-07 13:22 | 21.08440 | -161.58904 | 39099 ft | 513 kts | 92° |
| 2026-05-07 13:23 | 21.07349 | -161.28457 | 39086 ft | 511 kts | 92° |
| 2026-05-07 13:23 | 21.06260 | -160.98246 | 39079 ft | 511 kts | 92° |
| 2026-05-07 13:24 | 21.05111 | -160.67909 | 39085 ft | 509 kts | 92° |
| 2026-05-07 13:24 | 21.04587 | -160.54535 | 39085 ft | 509 kts | 92° |
| 2026-05-07 13:25 | 21.04287 | -160.46971 | 39082 ft | 508 kts | 92° |
| 2026-05-07 13:25 | 21.03987 | -160.39511 | 39088 ft | 496 kts | 92° |
| 2026-05-07 13:26 | 21.03688 | -160.32162 | 39088 ft | 493 kts | 92° |
| 2026-05-07 13:26 | 21.03538 | -160.28500 | 38803 ft | 491 kts | 92° |
| 2026-05-07 13:26 | 21.03387 | -160.24844 | 38386 ft | 494 kts | 93° |
| 2026-05-07 13:27 | 21.03079 | -160.17420 | 38278 ft | 502 kts | 93° |
| 2026-05-07 13:27 | 21.02924 | -160.13720 | 38148 ft | 493 kts | 93° |
| 2026-05-07 13:27 | 21.02772 | -160.10093 | 37960 ft | 484 kts | 93° |
| 2026-05-07 13:28 | 21.02621 | -160.06525 | 37768 ft | 475 kts | 93° |
| 2026-05-07 13:28 | 21.02472 | -160.03020 | 37555 ft | 469 kts | 93° |
| 2026-05-07 13:28 | 21.02323 | -159.99531 | 36903 ft | 472 kts | 93° |
| 2026-05-07 13:28 | 21.02173 | -159.96041 | 36093 ft | 479 kts | 93° |
| 2026-05-07 13:29 | 21.02018 | -159.92458 | 35317 ft | 485 kts | 93° |
| 2026-05-07 13:29 | 21.01861 | -159.88842 | 34643 ft | 488 kts | 93° |
| 2026-05-07 13:29 | 21.01703 | -159.85202 | 34005 ft | 490 kts | 93° |
| 2026-05-07 13:29 | 21.01544 | -159.81560 | 33289 ft | 491 kts | 93° |
| 2026-05-07 13:30 | 21.01383 | -159.77905 | 32475 ft | 494 kts | 93° |
| 2026-05-07 13:30 | 21.01220 | -159.74205 | 31526 ft | 500 kts | 93° |
| 2026-05-07 13:30 | 21.01054 | -159.70473 | 30768 ft | 502 kts | 93° |
| 2026-05-07 13:30 | 21.00888 | -159.66750 | 30119 ft | 500 kts | 93° |
| 2026-05-07 13:31 | 21.00722 | -159.63038 | 29478 ft | 497 kts | 93° |
| 2026-05-07 13:31 | 21.00557 | -159.59366 | 28896 ft | 492 kts | 94° |
| 2026-05-07 13:31 | 21.00392 | -159.55713 | 28242 ft | 489 kts | 93° |
| 2026-05-07 13:31 | 21.00227 | -159.52098 | 27746 ft | 483 kts | 93° |
| 2026-05-07 13:32 | 21.00064 | -159.48523 | 27134 ft | 480 kts | 94° |
| 2026-05-07 13:32 | 20.99901 | -159.44963 | 26612 ft | 476 kts | 93° |
| 2026-05-07 13:32 | 20.99741 | -159.41497 | 26024 ft | 472 kts | 93° |
| 2026-05-07 13:32 | 20.99577 | -159.37966 | 25100 ft | 477 kts | 93° |
| 2026-05-07 13:33 | 20.99412 | -159.34419 | 24445 ft | 475 kts | 93° |
| 2026-05-07 13:33 | 20.99248 | -159.30899 | 23829 ft | 472 kts | 93° |
| 2026-05-07 13:33 | 20.99083 | -159.27399 | 23175 ft | 468 kts | 93° |
| 2026-05-07 13:33 | 20.98973 | -159.25054 | 22730 ft | 466 kts | 93° |
| 2026-05-07 13:34 | 20.98812 | -159.21651 | 22050 ft | 463 kts | 93° |
| 2026-05-07 13:34 | 20.98488 | -159.14831 | 20771 ft | 455 kts | 93° |
| 2026-05-07 13:34 | 20.98326 | -159.11458 | 20133 ft | 453 kts | 93° |
| 2026-05-07 13:35 | 20.98165 | -159.08111 | 19651 ft | 446 kts | 93° |
| 2026-05-07 13:35 | 20.98007 | -159.04818 | 19170 ft | 440 kts | 93° |
| 2026-05-07 13:35 | 20.97849 | -159.01554 | 18624 ft | 437 kts | 93° |
| 2026-05-07 13:35 | 20.97691 | -158.98322 | 18067 ft | 433 kts | 93° |
| 2026-05-07 13:36 | 20.97535 | -158.95116 | 17429 ft | 430 kts | 93° |
| 2026-05-07 13:36 | 20.97378 | -158.91923 | 16760 ft | 429 kts | 93° |
| 2026-05-07 13:36 | 20.97223 | -158.88773 | 16214 ft | 424 kts | 93° |
| 2026-05-07 13:36 | 20.97068 | -158.85625 | 15591 ft | 423 kts | 93° |
| 2026-05-07 13:37 | 20.96912 | -158.82490 | 14992 ft | 421 kts | 93° |
| 2026-05-07 13:37 | 20.96758 | -158.79382 | 14512 ft | 415 kts | 93° |
| 2026-05-07 13:37 | 20.96604 | -158.76307 | 13935 ft | 412 kts | 93° |
| 2026-05-07 13:37 | 20.96453 | -158.73290 | 12847 ft | 403 kts | 93° |
| 2026-05-07 13:38 | 20.96302 | -158.70285 | 11939 ft | 402 kts | 93° |
| 2026-05-07 13:38 | 20.96154 | -158.67353 | 11563 ft | 387 kts | 93° |
| 2026-05-07 13:38 | 20.96012 | -158.64544 | 11324 ft | 369 kts | 93° |
| 2026-05-07 13:38 | 20.95877 | -158.61894 | 11085 ft | 344 kts | 93° |
| 2026-05-07 13:39 | 20.95751 | -158.59414 | 10857 ft | 327 kts | 93° |
| 2026-05-07 13:39 | 20.95631 | -158.57058 | 10646 ft | 316 kts | 93° |
| 2026-05-07 13:39 | 20.95512 | -158.54734 | 10389 ft | 309 kts | 93° |
| 2026-05-07 13:39 | 20.95395 | -158.52460 | 10163 ft | 306 kts | 93° |
| 2026-05-07 13:40 | 20.95278 | -158.50187 | 9983 ft | 304 kts | 93° |
| 2026-05-07 13:40 | 20.95162 | -158.47940 | 9702 ft | 302 kts | 93° |
| 2026-05-07 13:40 | 20.95046 | -158.45711 | 9412 ft | 299 kts | 93° |
| 2026-05-07 13:40 | 20.94931 | -158.43493 | 9078 ft | 298 kts | 94° |
| 2026-05-07 13:41 | 20.94816 | -158.41278 | 8758 ft | 297 kts | 94° |
| 2026-05-07 13:41 | 20.94702 | -158.39087 | 8492 ft | 294 kts | 94° |
| 2026-05-07 13:41 | 20.94589 | -158.36913 | 8193 ft | 292 kts | 94° |
| 2026-05-07 13:41 | 20.94475 | -158.34750 | 7874 ft | 290 kts | 94° |
| 2026-05-07 13:42 | 20.94362 | -158.32600 | 7545 ft | 290 kts | 94° |
| 2026-05-07 13:42 | 20.94249 | -158.30454 | 7215 ft | 288 kts | 94° |
| 2026-05-07 13:42 | 20.94137 | -158.28316 | 6887 ft | 287 kts | 94° |
| 2026-05-07 13:42 | 20.94038 | -158.26211 | 6551 ft | 281 kts | 92° |
| 2026-05-07 13:43 | 20.94328 | -158.24174 | 6197 ft | 276 kts | 69° |
| 2026-05-07 13:43 | 20.95392 | -158.22504 | 5858 ft | 274 kts | 43° |
| 2026-05-07 13:43 | 20.96845 | -158.21213 | 5600 ft | 270 kts | 37° |
| 2026-05-07 13:43 | 20.98329 | -158.20007 | 5354 ft | 266 kts | 37° |
| 2026-05-07 13:44 | 20.99790 | -158.18826 | 5150 ft | 261 kts | 37° |
| 2026-05-07 13:44 | 21.01225 | -158.17663 | 4923 ft | 256 kts | 37° |
| 2026-05-07 13:44 | 21.02626 | -158.16512 | 4748 ft | 251 kts | 37° |
| 2026-05-07 13:44 | 21.03992 | -158.15377 | 4495 ft | 248 kts | 38° |
| 2026-05-07 13:45 | 21.05348 | -158.14248 | 4233 ft | 245 kts | 37° |
| 2026-05-07 13:45 | 21.06673 | -158.13160 | 4019 ft | 242 kts | 37° |
| 2026-05-07 13:45 | 21.08002 | -158.12081 | 3801 ft | 238 kts | 37° |
| 2026-05-07 13:45 | 21.09300 | -158.11023 | 3667 ft | 231 kts | 37° |
| 2026-05-07 13:46 | 21.10562 | -158.09988 | 3503 ft | 226 kts | 37° |
| 2026-05-07 13:46 | 21.11805 | -158.08967 | 3275 ft | 224 kts | 37° |
| 2026-05-07 13:46 | 21.13032 | -158.07961 | 3102 ft | 220 kts | 37° |
| 2026-05-07 13:46 | 21.14237 | -158.06977 | 2944 ft | 216 kts | 35° |
| 2026-05-07 13:47 | 21.15536 | -158.06198 | 2736 ft | 214 kts | 25° |
| 2026-05-07 13:47 | 21.16876 | -158.05530 | 2539 ft | 210 kts | 25° |
| 2026-05-07 13:47 | 21.18194 | -158.04897 | 2365 ft | 205 kts | 25° |
| 2026-05-07 13:47 | 21.19480 | -158.04296 | 2233 ft | 197 kts | 24° |
| 2026-05-07 13:48 | 21.20685 | -158.03752 | 2220 ft | 179 kts | 25° |
| 2026-05-07 13:48 | 21.21781 | -158.03255 | 2139 ft | 164 kts | 24° |
| 2026-05-07 13:48 | 21.22795 | -158.02775 | 2043 ft | 153 kts | 26° |
| 2026-05-07 13:48 | 21.23735 | -158.02277 | 1976 ft | 151 kts | 30° |
| 2026-05-07 13:49 | 21.24626 | -158.01714 | 1934 ft | 151 kts | 34° |
| 2026-05-07 13:49 | 21.25465 | -158.01032 | 1888 ft | 152 kts | 44° |
| 2026-05-07 13:49 | 21.26186 | -158.00218 | 1865 ft | 149 kts | 49° |
| 2026-05-07 13:49 | 21.26796 | -157.99387 | 1777 ft | 135 kts | 52° |
| 2026-05-07 13:50 | 21.27341 | -157.98590 | 1663 ft | 132 kts | 52° |
| 2026-05-07 13:50 | 21.27917 | -157.97753 | 1528 ft | 147 kts | 52° |
| 2026-05-07 13:50 | 21.28526 | -157.96901 | 1403 ft | 150 kts | 51° |
| 2026-05-07 13:50 | 21.29223 | -157.96018 | 1263 ft | 157 kts | 49° |
| 2026-05-07 13:51 | 21.29848 | -157.94954 | 1474 ft | 186 kts | 69° |
| 2026-05-07 13:51 | 21.29861 | -157.93439 | 1793 ft | 224 kts | 103° |
| 2026-05-07 13:51 | 21.29187 | -157.91975 | 1978 ft | 212 kts | 120° |
| 2026-05-07 13:51 | 21.28215 | -157.90845 | 2034 ft | 209 kts | 146° |
| 2026-05-07 13:52 | 21.26802 | -157.90454 | 2058 ft | 216 kts | 182° |
| 2026-05-07 13:52 | 21.25371 | -157.90998 | 2075 ft | 226 kts | 215° |
| 2026-05-07 13:52 | 21.24156 | -157.92088 | 2045 ft | 229 kts | 221° |
| 2026-05-07 13:52 | 21.22962 | -157.93198 | 2042 ft | 227 kts | 220° |
| 2026-05-07 13:53 | 21.21768 | -157.94283 | 1986 ft | 224 kts | 219° |
| 2026-05-07 13:53 | 21.20594 | -157.95353 | 2038 ft | 212 kts | 221° |
| 2026-05-07 13:53 | 21.19818 | -157.96556 | 2001 ft | 187 kts | 256° |
| 2026-05-07 13:53 | 21.19839 | -157.97856 | 1983 ft | 171 kts | 294° |
| 2026-05-07 13:54 | 21.20473 | -157.98891 | 1973 ft | 165 kts | 322° |
| 2026-05-07 13:54 | 21.21321 | -157.99722 | 1970 ft | 165 kts | 324° |
| 2026-05-07 13:54 | 21.22190 | -158.00512 | 1973 ft | 162 kts | 329° |
| 2026-05-07 13:54 | 21.23177 | -158.00975 | 2047 ft | 148 kts | 354° |
| 2026-05-07 13:55 | 21.24143 | -158.00934 | 2036 ft | 136 kts | 17° |
| 2026-05-07 13:55 | 21.25029 | -158.00581 | 1947 ft | 139 kts | 31° |
| 2026-05-07 13:55 | 21.25861 | -158.00037 | 1913 ft | 140 kts | 35° |
| 2026-05-07 13:55 | 21.26625 | -157.99394 | 1843 ft | 140 kts | 44° |
| 2026-05-07 13:56 | 21.27303 | -157.98643 | 1639 ft | 139 kts | 48° |
| 2026-05-07 13:56 | 21.27888 | -157.97851 | 1434 ft | 133 kts | 53° |
| 2026-05-07 13:56 | 21.28445 | -157.97033 | 1240 ft | 138 kts | 52° |
| 2026-05-07 13:56 | 21.29052 | -157.96224 | 999 ft | 140 kts | 49° |
| 2026-05-07 13:57 | 21.29648 | -157.95411 | 774 ft | 139 kts | 51° |
| 2026-05-07 13:57 | 21.30231 | -157.94588 | 563 ft | 139 kts | 51° |
| 2026-05-07 13:57 | 21.30814 | -157.93773 | 362 ft | 137 kts | 50° |
| 2026-05-07 13:57 | 21.31386 | -157.92951 | 205 ft | 138 kts | 49° |
| 2026-05-07 13:58 | 21.31970 | -157.92137 | 36 ft | 137 kts | 50° |
| 2026-05-07 13:58 | 21.32424 | -157.91501 | 17 ft | 66 kts | 52° |
| 2026-05-07 13:58 | 21.32572 | -157.91328 | 19 ft | 16 kts | 15° |
| 2026-05-07 13:58 | 21.32672 | -157.91311 | 20 ft | 14 kts | 8° |
| 2026-05-07 13:59 | 21.32760 | -157.91318 | 22 ft | 10 kts | 320° |
| 2026-05-07 13:59 | 21.32773 | -157.91389 | 21 ft | 11 kts | 271° |
| 2026-05-07 13:59 | 21.32773 | -157.91475 | 21 ft | 12 kts | 270° |
| 2026-05-07 13:59 | 21.32773 | -157.91567 | 22 ft | 12 kts | 270° |
| 2026-05-07 14:00 | 21.32773 | -157.91657 | 23 ft | 13 kts | 270° |
| 2026-05-07 14:00 | 21.32773 | -157.91757 | 23 ft | 14 kts | 270° |
| 2026-05-07 14:00 | 21.32772 | -157.91873 | 21 ft | 17 kts | 269° |
| 2026-05-07 14:00 | 21.32773 | -157.91982 | 21 ft | 14 kts | 271° |
| 2026-05-07 14:01 | 21.32776 | -157.92079 | 23 ft | 10 kts | 270° |
| 2026-05-07 14:01 | 21.32789 | -157.92150 | 29 ft | 10 kts | 304° |
| 2026-05-07 14:01 | 21.32846 | -157.92167 | 24 ft | 9 kts | 1° |
| 2026-05-07 14:01 | 21.32916 | -157.92159 | 21 ft | 12 kts | 8° |
| 2026-05-07 14:02 | 21.32957 | -157.92151 | 20 ft | 6 kts | 11° |
| 2026-05-07 14:02 | 21.33001 | -157.92139 | 20 ft | 7 kts | 22° |
| 2026-05-07 14:02 | 21.33015 | -157.92107 | 21 ft | 4 kts | 88° |
| 2026-05-07 14:02 | 21.33011 | -157.92079 | 24 ft | 3 kts | 98° |
| 2026-05-07 14:03 | 21.33010 | -157.92074 | 22 ft | 0 kts | 99° |